sensor_id;sensor_type;location;lat;lon;timestamp;P1;durP1;ratioP1;P2;durP2;ratioP2
17844;SDS011;9047;53.486;10.218;2022-09-27T00:01:27;7.95;;;4.78;;
17844;SDS011;9047;53.486;10.218;2022-09-27T00:03:55;7.57;;;4.60;;
17844;SDS011;9047;53.486;10.218;2022-09-27T00:06:25;6.28;;;4.10;;
17844;SDS011;9047;53.486;10.218;2022-09-27T00:08:56;6.13;;;4.43;;
17844;SDS011;9047;53.486;10.218;2022-09-27T00:11:27;6.28;;;4.45;;
17844;SDS011;9047;53.486;10.218;2022-09-27T00:13:57;8.55;;;4.78;;
17844;SDS011;9047;53.486;10.218;2022-09-27T00:16:29;6.28;;;4.28;;
17844;SDS011;9047;53.486;10.218;2022-09-27T00:19:04;9.10;;;4.85;;
17844;SDS011;9047;53.486;10.218;2022-09-27T00:21:32;8.63;;;5.30;;
17844;SDS011;9047;53.486;10.218;2022-09-27T00:24:03;8.32;;;5.03;;
17844;SDS011;9047;53.486;10.218;2022-09-27T00:26:35;7.50;;;4.75;;
17844;SDS011;9047;53.486;10.218;2022-09-27T00:29:02;10.93;;;5.07;;
17844;SDS011;9047;53.486;10.218;2022-09-27T00:31:29;8.73;;;5.18;;
17844;SDS011;9047;53.486;10.218;2022-09-27T00:33:57;8.05;;;5.13;;
17844;SDS011;9047;53.486;10.218;2022-09-27T00:36:26;6.25;;;4.43;;
17844;SDS011;9047;53.486;10.218;2022-09-27T00:38:54;7.82;;;5.30;;
17844;SDS011;9047;53.486;10.218;2022-09-27T00:41:25;6.85;;;4.68;;
17844;SDS011;9047;53.486;10.218;2022-09-27T00:43:59;7.38;;;5.13;;
17844;SDS011;9047;53.486;10.218;2022-09-27T00:46:30;8.40;;;5.22;;
17844;SDS011;9047;53.486;10.218;2022-09-27T00:49:06;7.85;;;5.07;;
17844;SDS011;9047;53.486;10.218;2022-09-27T00:51:40;7.75;;;5.25;;
17844;SDS011;9047;53.486;10.218;2022-09-27T00:54:13;8.35;;;5.35;;
17844;SDS011;9047;53.486;10.218;2022-09-27T00:56:42;6.75;;;5.20;;
17844;SDS011;9047;53.486;10.218;2022-09-27T00:59:13;7.28;;;5.10;;
17844;SDS011;9047;53.486;10.218;2022-09-27T01:01:44;7.47;;;5.25;;
17844;SDS011;9047;53.486;10.218;2022-09-27T01:04:14;9.38;;;5.30;;
17844;SDS011;9047;53.486;10.218;2022-09-27T01:06:52;7.75;;;5.28;;
17844;SDS011;9047;53.486;10.218;2022-09-27T01:09:19;7.20;;;5.57;;
17844;SDS011;9047;53.486;10.218;2022-09-27T01:11:56;9.63;;;5.50;;
17844;SDS011;9047;53.486;10.218;2022-09-27T01:14:39;9.00;;;5.38;;
17844;SDS011;9047;53.486;10.218;2022-09-27T01:17:19;8.77;;;5.50;;
17844;SDS011;9047;53.486;10.218;2022-09-27T01:20:18;7.03;;;4.65;;
17844;SDS011;9047;53.486;10.218;2022-09-27T01:23:13;8.80;;;5.28;;
17844;SDS011;9047;53.486;10.218;2022-09-27T01:26:08;9.02;;;5.35;;
17844;SDS011;9047;53.486;10.218;2022-09-27T01:28:46;7.88;;;5.90;;
17844;SDS011;9047;53.486;10.218;2022-09-27T01:31:25;8.70;;;5.72;;
17844;SDS011;9047;53.486;10.218;2022-09-27T01:34:00;8.15;;;5.40;;
17844;SDS011;9047;53.486;10.218;2022-09-27T01:36:32;8.70;;;4.97;;
17844;SDS011;9047;53.486;10.218;2022-09-27T01:39:08;9.45;;;5.70;;
17844;SDS011;9047;53.486;10.218;2022-09-27T01:41:47;7.85;;;5.30;;
17844;SDS011;9047;53.486;10.218;2022-09-27T01:44:23;12.82;;;6.30;;
17844;SDS011;9047;53.486;10.218;2022-09-27T01:46:57;7.22;;;5.18;;
17844;SDS011;9047;53.486;10.218;2022-09-27T01:49:31;8.00;;;5.20;;
17844;SDS011;9047;53.486;10.218;2022-09-27T01:52:06;8.50;;;5.53;;
17844;SDS011;9047;53.486;10.218;2022-09-27T01:54:40;9.13;;;5.65;;
17844;SDS011;9047;53.486;10.218;2022-09-27T01:57:16;9.35;;;6.00;;
17844;SDS011;9047;53.486;10.218;2022-09-27T01:59:46;6.95;;;4.70;;
17844;SDS011;9047;53.486;10.218;2022-09-27T02:02:20;7.30;;;5.25;;
17844;SDS011;9047;53.486;10.218;2022-09-27T02:04:49;9.15;;;5.40;;
17844;SDS011;9047;53.486;10.218;2022-09-27T02:07:22;10.15;;;6.10;;
17844;SDS011;9047;53.486;10.218;2022-09-27T02:09:56;9.90;;;5.43;;
17844;SDS011;9047;53.486;10.218;2022-09-27T02:12:30;8.80;;;5.47;;
17844;SDS011;9047;53.486;10.218;2022-09-27T02:15:02;8.45;;;5.88;;
17844;SDS011;9047;53.486;10.218;2022-09-27T02:17:36;6.38;;;4.53;;
17844;SDS011;9047;53.486;10.218;2022-09-27T02:20:14;8.52;;;5.28;;
17844;SDS011;9047;53.486;10.218;2022-09-27T02:22:48;8.63;;;5.93;;
17844;SDS011;9047;53.486;10.218;2022-09-27T02:25:20;8.45;;;5.70;;
17844;SDS011;9047;53.486;10.218;2022-09-27T02:27:56;7.53;;;5.63;;
17844;SDS011;9047;53.486;10.218;2022-09-27T02:30:25;9.45;;;5.68;;
17844;SDS011;9047;53.486;10.218;2022-09-27T02:32:56;8.32;;;5.22;;
17844;SDS011;9047;53.486;10.218;2022-09-27T02:35:26;9.07;;;5.85;;
17844;SDS011;9047;53.486;10.218;2022-09-27T02:37:56;13.07;;;6.78;;
17844;SDS011;9047;53.486;10.218;2022-09-27T02:40:34;10.40;;;6.32;;
17844;SDS011;9047;53.486;10.218;2022-09-27T02:43:11;8.27;;;5.90;;
17844;SDS011;9047;53.486;10.218;2022-09-27T02:45:44;7.72;;;5.43;;
17844;SDS011;9047;53.486;10.218;2022-09-27T02:48:21;11.32;;;7.07;;
17844;SDS011;9047;53.486;10.218;2022-09-27T02:51:01;12.15;;;6.20;;
17844;SDS011;9047;53.486;10.218;2022-09-27T02:53:39;9.82;;;6.68;;
17844;SDS011;9047;53.486;10.218;2022-09-27T02:56:18;9.55;;;6.00;;
17844;SDS011;9047;53.486;10.218;2022-09-27T02:58:56;10.55;;;7.03;;
17844;SDS011;9047;53.486;10.218;2022-09-27T03:01:34;7.82;;;5.50;;
17844;SDS011;9047;53.486;10.218;2022-09-27T03:04:09;8.07;;;6.28;;
17844;SDS011;9047;53.486;10.218;2022-09-27T03:06:43;8.65;;;6.35;;
17844;SDS011;9047;53.486;10.218;2022-09-27T03:09:14;12.25;;;7.32;;
17844;SDS011;9047;53.486;10.218;2022-09-27T03:11:50;9.80;;;7.10;;
17844;SDS011;9047;53.486;10.218;2022-09-27T03:14:22;7.05;;;5.35;;
17844;SDS011;9047;53.486;10.218;2022-09-27T03:16:49;11.98;;;7.65;;
17844;SDS011;9047;53.486;10.218;2022-09-27T03:19:17;9.48;;;6.72;;
17844;SDS011;9047;53.486;10.218;2022-09-27T03:21:47;12.27;;;7.35;;
17844;SDS011;9047;53.486;10.218;2022-09-27T03:24:15;12.30;;;7.40;;
17844;SDS011;9047;53.486;10.218;2022-09-27T03:26:44;9.75;;;6.95;;
17844;SDS011;9047;53.486;10.218;2022-09-27T03:29:11;9.63;;;7.03;;
17844;SDS011;9047;53.486;10.218;2022-09-27T03:31:41;11.05;;;7.18;;
17844;SDS011;9047;53.486;10.218;2022-09-27T03:34:10;12.20;;;7.78;;
17844;SDS011;9047;53.486;10.218;2022-09-27T03:36:45;10.35;;;6.82;;
17844;SDS011;9047;53.486;10.218;2022-09-27T03:39:12;9.13;;;6.70;;
17844;SDS011;9047;53.486;10.218;2022-09-27T03:41:39;12.15;;;8.77;;
17844;SDS011;9047;53.486;10.218;2022-09-27T03:44:11;12.13;;;8.55;;
17844;SDS011;9047;53.486;10.218;2022-09-27T03:46:40;11.80;;;8.32;;
17844;SDS011;9047;53.486;10.218;2022-09-27T03:49:07;11.82;;;7.85;;
17844;SDS011;9047;53.486;10.218;2022-09-27T03:51:34;12.80;;;7.82;;
17844;SDS011;9047;53.486;10.218;2022-09-27T03:54:05;10.35;;;7.35;;
17844;SDS011;9047;53.486;10.218;2022-09-27T03:56:34;11.40;;;7.85;;
17844;SDS011;9047;53.486;10.218;2022-09-27T03:59:01;14.70;;;8.60;;
17844;SDS011;9047;53.486;10.218;2022-09-27T04:01:28;12.55;;;8.30;;
17844;SDS011;9047;53.486;10.218;2022-09-27T04:03:55;11.05;;;7.50;;
17844;SDS011;9047;53.486;10.218;2022-09-27T04:06:22;10.55;;;7.50;;
17844;SDS011;9047;53.486;10.218;2022-09-27T04:08:51;11.30;;;8.23;;
17844;SDS011;9047;53.486;10.218;2022-09-27T04:11:20;12.00;;;8.15;;
17844;SDS011;9047;53.486;10.218;2022-09-27T04:13:50;12.55;;;8.10;;
17844;SDS011;9047;53.486;10.218;2022-09-27T04:16:17;13.13;;;8.38;;
17844;SDS011;9047;53.486;10.218;2022-09-27T04:18:44;13.00;;;8.40;;
17844;SDS011;9047;53.486;10.218;2022-09-27T04:21:11;11.65;;;8.25;;
17844;SDS011;9047;53.486;10.218;2022-09-27T04:23:40;14.40;;;8.75;;
17844;SDS011;9047;53.486;10.218;2022-09-27T04:26:09;13.10;;;8.80;;
17844;SDS011;9047;53.486;10.218;2022-09-27T04:28:39;9.63;;;7.82;;
17844;SDS011;9047;53.486;10.218;2022-09-27T04:31:06;10.35;;;8.10;;
17844;SDS011;9047;53.486;10.218;2022-09-27T04:33:33;11.48;;;9.27;;
17844;SDS011;9047;53.486;10.218;2022-09-27T04:36:03;10.27;;;7.80;;
17844;SDS011;9047;53.486;10.218;2022-09-27T04:38:49;11.60;;;8.02;;
17844;SDS011;9047;53.486;10.218;2022-09-27T04:41:19;16.02;;;10.05;;
17844;SDS011;9047;53.486;10.218;2022-09-27T04:43:49;14.52;;;9.77;;
17844;SDS011;9047;53.486;10.218;2022-09-27T04:46:16;13.88;;;8.82;;
17844;SDS011;9047;53.486;10.218;2022-09-27T04:48:43;13.93;;;9.38;;
17844;SDS011;9047;53.486;10.218;2022-09-27T04:51:10;14.23;;;10.85;;
17844;SDS011;9047;53.486;10.218;2022-09-27T04:53:37;16.60;;;10.45;;
17844;SDS011;9047;53.486;10.218;2022-09-27T04:56:04;16.02;;;9.27;;
17844;SDS011;9047;53.486;10.218;2022-09-27T04:58:32;14.38;;;8.80;;
17844;SDS011;9047;53.486;10.218;2022-09-27T05:01:01;14.00;;;9.32;;
17844;SDS011;9047;53.486;10.218;2022-09-27T05:03:28;15.18;;;9.43;;
17844;SDS011;9047;53.486;10.218;2022-09-27T05:05:55;11.30;;;8.65;;
17844;SDS011;9047;53.486;10.218;2022-09-27T05:08:22;14.98;;;10.05;;
17844;SDS011;9047;53.486;10.218;2022-09-27T05:10:49;12.80;;;8.73;;
17844;SDS011;9047;53.486;10.218;2022-09-27T05:13:16;16.65;;;9.98;;
17844;SDS011;9047;53.486;10.218;2022-09-27T05:15:45;11.90;;;8.57;;
17844;SDS011;9047;53.486;10.218;2022-09-27T05:18:13;16.20;;;10.27;;
17844;SDS011;9047;53.486;10.218;2022-09-27T05:20:48;17.13;;;10.20;;
17844;SDS011;9047;53.486;10.218;2022-09-27T05:23:15;16.38;;;9.60;;
17844;SDS011;9047;53.486;10.218;2022-09-27T05:25:42;15.50;;;10.05;;
17844;SDS011;9047;53.486;10.218;2022-09-27T05:28:09;14.38;;;10.05;;
17844;SDS011;9047;53.486;10.218;2022-09-27T05:30:40;11.98;;;9.18;;
17844;SDS011;9047;53.486;10.218;2022-09-27T05:33:07;14.00;;;9.75;;
17844;SDS011;9047;53.486;10.218;2022-09-27T05:35:39;15.63;;;11.18;;
17844;SDS011;9047;53.486;10.218;2022-09-27T05:38:11;14.13;;;10.45;;
17844;SDS011;9047;53.486;10.218;2022-09-27T05:40:39;15.13;;;9.57;;
17844;SDS011;9047;53.486;10.218;2022-09-27T05:43:13;13.80;;;9.85;;
17844;SDS011;9047;53.486;10.218;2022-09-27T05:45:42;15.25;;;10.57;;
17844;SDS011;9047;53.486;10.218;2022-09-27T05:48:12;15.90;;;9.68;;
17844;SDS011;9047;53.486;10.218;2022-09-27T05:50:40;16.05;;;9.48;;
17844;SDS011;9047;53.486;10.218;2022-09-27T05:53:09;14.20;;;9.40;;
17844;SDS011;9047;53.486;10.218;2022-09-27T05:55:37;12.60;;;8.98;;
17844;SDS011;9047;53.486;10.218;2022-09-27T05:58:05;13.05;;;9.07;;
17844;SDS011;9047;53.486;10.218;2022-09-27T06:00:34;14.38;;;9.10;;
17844;SDS011;9047;53.486;10.218;2022-09-27T06:03:01;15.02;;;9.20;;
17844;SDS011;9047;53.486;10.218;2022-09-27T06:05:30;15.77;;;9.23;;
17844;SDS011;9047;53.486;10.218;2022-09-27T06:08:08;11.55;;;8.43;;
17844;SDS011;9047;53.486;10.218;2022-09-27T06:10:36;12.70;;;7.95;;
17844;SDS011;9047;53.486;10.218;2022-09-27T06:13:04;15.50;;;8.90;;
17844;SDS011;9047;53.486;10.218;2022-09-27T06:15:33;18.10;;;10.10;;
17844;SDS011;9047;53.486;10.218;2022-09-27T06:18:02;17.92;;;9.27;;
17844;SDS011;9047;53.486;10.218;2022-09-27T06:20:30;13.40;;;8.88;;
17844;SDS011;9047;53.486;10.218;2022-09-27T06:23:02;17.45;;;9.90;;
17844;SDS011;9047;53.486;10.218;2022-09-27T06:25:33;17.73;;;10.05;;
17844;SDS011;9047;53.486;10.218;2022-09-27T06:28:00;14.25;;;9.35;;
17844;SDS011;9047;53.486;10.218;2022-09-27T06:30:28;15.07;;;9.45;;
17844;SDS011;9047;53.486;10.218;2022-09-27T06:32:55;18.00;;;10.02;;
17844;SDS011;9047;53.486;10.218;2022-09-27T06:35:26;24.10;;;10.77;;
17844;SDS011;9047;53.486;10.218;2022-09-27T06:37:55;17.55;;;10.27;;
17844;SDS011;9047;53.486;10.218;2022-09-27T06:40:22;20.35;;;10.35;;
17844;SDS011;9047;53.486;10.218;2022-09-27T06:42:52;16.88;;;10.23;;
17844;SDS011;9047;53.486;10.218;2022-09-27T06:45:21;25.65;;;11.30;;
17844;SDS011;9047;53.486;10.218;2022-09-27T06:47:51;21.38;;;11.13;;
17844;SDS011;9047;53.486;10.218;2022-09-27T06:50:18;20.65;;;10.50;;
17844;SDS011;9047;53.486;10.218;2022-09-27T06:52:46;21.88;;;11.40;;
17844;SDS011;9047;53.486;10.218;2022-09-27T06:55:14;18.42;;;10.30;;
17844;SDS011;9047;53.486;10.218;2022-09-27T06:57:41;17.33;;;9.23;;
17844;SDS011;9047;53.486;10.218;2022-09-27T07:00:27;19.65;;;10.27;;
17844;SDS011;9047;53.486;10.218;2022-09-27T07:02:55;16.13;;;9.38;;
17844;SDS011;9047;53.486;10.218;2022-09-27T07:05:25;13.23;;;8.13;;
17844;SDS011;9047;53.486;10.218;2022-09-27T07:07:53;15.38;;;8.60;;
17844;SDS011;9047;53.486;10.218;2022-09-27T07:10:21;11.98;;;7.30;;
17844;SDS011;9047;53.486;10.218;2022-09-27T07:12:49;11.32;;;7.20;;
17844;SDS011;9047;53.486;10.218;2022-09-27T07:15:18;10.40;;;6.47;;
17844;SDS011;9047;53.486;10.218;2022-09-27T07:17:47;9.38;;;6.28;;
17844;SDS011;9047;53.486;10.218;2022-09-27T07:20:21;9.80;;;5.68;;
17844;SDS011;9047;53.486;10.218;2022-09-27T07:22:48;6.47;;;4.72;;
17844;SDS011;9047;53.486;10.218;2022-09-27T07:25:15;6.80;;;4.28;;
17844;SDS011;9047;53.486;10.218;2022-09-27T07:27:42;5.82;;;4.07;;
17844;SDS011;9047;53.486;10.218;2022-09-27T07:30:09;5.65;;;3.60;;
17844;SDS011;9047;53.486;10.218;2022-09-27T07:32:37;5.45;;;3.33;;
17844;SDS011;9047;53.486;10.218;2022-09-27T07:35:07;5.25;;;3.30;;
17844;SDS011;9047;53.486;10.218;2022-09-27T07:37:37;5.50;;;2.58;;
17844;SDS011;9047;53.486;10.218;2022-09-27T07:40:05;2.80;;;2.10;;
17844;SDS011;9047;53.486;10.218;2022-09-27T07:42:34;2.42;;;1.90;;
17844;SDS011;9047;53.486;10.218;2022-09-27T07:45:03;2.35;;;1.90;;
17844;SDS011;9047;53.486;10.218;2022-09-27T07:47:31;2.85;;;1.80;;
17844;SDS011;9047;53.486;10.218;2022-09-27T07:49:58;3.58;;;2.03;;
17844;SDS011;9047;53.486;10.218;2022-09-27T07:52:28;4.18;;;1.90;;
17844;SDS011;9047;53.486;10.218;2022-09-27T07:54:54;2.17;;;1.70;;
17844;SDS011;9047;53.486;10.218;2022-09-27T07:57:23;2.60;;;1.48;;
17844;SDS011;9047;53.486;10.218;2022-09-27T07:59:52;3.15;;;1.38;;
17844;SDS011;9047;53.486;10.218;2022-09-27T08:02:19;2.72;;;1.25;;
17844;SDS011;9047;53.486;10.218;2022-09-27T08:04:46;3.22;;;1.27;;
17844;SDS011;9047;53.486;10.218;2022-09-27T08:07:13;2.95;;;1.42;;
17844;SDS011;9047;53.486;10.218;2022-09-27T08:09:41;2.05;;;1.23;;
17844;SDS011;9047;53.486;10.218;2022-09-27T08:12:11;2.97;;;1.30;;
17844;SDS011;9047;53.486;10.218;2022-09-27T08:14:38;1.95;;;1.00;;
17844;SDS011;9047;53.486;10.218;2022-09-27T08:17:05;1.48;;;1.25;;
17844;SDS011;9047;53.486;10.218;2022-09-27T08:19:35;2.20;;;1.30;;
17844;SDS011;9047;53.486;10.218;2022-09-27T08:22:03;2.17;;;1.35;;
17844;SDS011;9047;53.486;10.218;2022-09-27T08:24:30;2.33;;;1.20;;
17844;SDS011;9047;53.486;10.218;2022-09-27T08:27:02;2.53;;;1.00;;
17844;SDS011;9047;53.486;10.218;2022-09-27T08:29:29;1.65;;;1.00;;
17844;SDS011;9047;53.486;10.218;2022-09-27T08:31:56;2.03;;;1.05;;
17844;SDS011;9047;53.486;10.218;2022-09-27T08:34:23;1.60;;;1.20;;
17844;SDS011;9047;53.486;10.218;2022-09-27T08:36:54;2.55;;;1.08;;
17844;SDS011;9047;53.486;10.218;2022-09-27T08:39:24;1.58;;;1.30;;
17844;SDS011;9047;53.486;10.218;2022-09-27T08:41:51;3.20;;;1.20;;
17844;SDS011;9047;53.486;10.218;2022-09-27T08:44:25;1.70;;;1.17;;
17844;SDS011;9047;53.486;10.218;2022-09-27T08:47:00;1.50;;;1.20;;
17844;SDS011;9047;53.486;10.218;2022-09-27T08:49:32;1.98;;;1.05;;
17844;SDS011;9047;53.486;10.218;2022-09-27T08:52:04;4.00;;;1.20;;
17844;SDS011;9047;53.486;10.218;2022-09-27T08:54:34;2.35;;;1.10;;
17844;SDS011;9047;53.486;10.218;2022-09-27T08:57:03;2.17;;;1.10;;
17844;SDS011;9047;53.486;10.218;2022-09-27T08:59:36;2.20;;;1.10;;
17844;SDS011;9047;53.486;10.218;2022-09-27T09:02:10;1.80;;;0.98;;
17844;SDS011;9047;53.486;10.218;2022-09-27T09:04:42;2.22;;;1.20;;
17844;SDS011;9047;53.486;10.218;2022-09-27T09:07:14;1.80;;;1.10;;
17844;SDS011;9047;53.486;10.218;2022-09-27T09:09:52;3.45;;;1.20;;
17844;SDS011;9047;53.486;10.218;2022-09-27T09:12:31;2.25;;;1.10;;
17844;SDS011;9047;53.486;10.218;2022-09-27T09:15:27;1.27;;;1.05;;
17844;SDS011;9047;53.486;10.218;2022-09-27T09:18:21;1.58;;;1.23;;
17844;SDS011;9047;53.486;10.218;2022-09-27T09:21:00;3.53;;;1.10;;
17844;SDS011;9047;53.486;10.218;2022-09-27T09:26:33;1.35;;;0.82;;
17844;SDS011;9047;53.486;10.218;2022-09-27T09:29:11;2.13;;;0.80;;
17844;SDS011;9047;53.486;10.218;2022-09-27T09:31:49;1.67;;;0.88;;
17844;SDS011;9047;53.486;10.218;2022-09-27T09:34:23;2.05;;;0.95;;
17844;SDS011;9047;53.486;10.218;2022-09-27T09:36:54;1.20;;;0.93;;
17844;SDS011;9047;53.486;10.218;2022-09-27T09:39:25;1.70;;;0.80;;
17844;SDS011;9047;53.486;10.218;2022-09-27T09:42:01;2.00;;;0.70;;
17844;SDS011;9047;53.486;10.218;2022-09-27T09:44:33;1.75;;;0.82;;
17844;SDS011;9047;53.486;10.218;2022-09-27T09:47:11;3.08;;;1.08;;
17844;SDS011;9047;53.486;10.218;2022-09-27T09:49:46;2.25;;;0.80;;
17844;SDS011;9047;53.486;10.218;2022-09-27T09:52:17;1.20;;;0.80;;
17844;SDS011;9047;53.486;10.218;2022-09-27T09:54:48;1.25;;;0.90;;
17844;SDS011;9047;53.486;10.218;2022-09-27T09:57:21;1.67;;;0.85;;
17844;SDS011;9047;53.486;10.218;2022-09-27T09:59:51;3.20;;;1.20;;
17844;SDS011;9047;53.486;10.218;2022-09-27T10:02:27;1.52;;;0.90;;
17844;SDS011;9047;53.486;10.218;2022-09-27T10:04:57;3.83;;;0.90;;
17844;SDS011;9047;53.486;10.218;2022-09-27T10:07:25;1.95;;;0.90;;
17844;SDS011;9047;53.486;10.218;2022-09-27T10:09:53;2.15;;;1.00;;
17844;SDS011;9047;53.486;10.218;2022-09-27T10:12:25;3.13;;;1.20;;
17844;SDS011;9047;53.486;10.218;2022-09-27T10:14:52;1.73;;;0.98;;
17844;SDS011;9047;53.486;10.218;2022-09-27T10:17:21;1.42;;;1.00;;
17844;SDS011;9047;53.486;10.218;2022-09-27T10:19:53;2.15;;;0.90;;
17844;SDS011;9047;53.486;10.218;2022-09-27T10:22:25;2.13;;;1.08;;
17844;SDS011;9047;53.486;10.218;2022-09-27T10:24:57;3.22;;;1.10;;
17844;SDS011;9047;53.486;10.218;2022-09-27T10:27:27;2.05;;;1.10;;
17844;SDS011;9047;53.486;10.218;2022-09-27T10:30:03;1.85;;;1.10;;
17844;SDS011;9047;53.486;10.218;2022-09-27T10:32:33;1.98;;;1.00;;
17844;SDS011;9047;53.486;10.218;2022-09-27T10:35:20;3.72;;;1.00;;
17844;SDS011;9047;53.486;10.218;2022-09-27T10:37:58;1.67;;;1.00;;
17844;SDS011;9047;53.486;10.218;2022-09-27T10:40:50;1.92;;;0.90;;
17844;SDS011;9047;53.486;10.218;2022-09-27T10:43:29;1.80;;;0.98;;
17844;SDS011;9047;53.486;10.218;2022-09-27T10:46:09;1.33;;;0.85;;
17844;SDS011;9047;53.486;10.218;2022-09-27T10:48:42;2.33;;;1.00;;
17844;SDS011;9047;53.486;10.218;2022-09-27T10:51:24;2.80;;;1.02;;
17844;SDS011;9047;53.486;10.218;2022-09-27T10:53:54;1.52;;;0.80;;
17844;SDS011;9047;53.486;10.218;2022-09-27T10:56:25;1.38;;;0.80;;
17844;SDS011;9047;53.486;10.218;2022-09-27T10:58:54;2.17;;;1.00;;
17844;SDS011;9047;53.486;10.218;2022-09-27T11:01:23;1.15;;;0.80;;
17844;SDS011;9047;53.486;10.218;2022-09-27T11:03:51;2.05;;;0.77;;
17844;SDS011;9047;53.486;10.218;2022-09-27T11:06:29;0.82;;;0.63;;
17844;SDS011;9047;53.486;10.218;2022-09-27T11:09:08;0.80;;;0.75;;
17844;SDS011;9047;53.486;10.218;2022-09-27T11:11:43;0.82;;;0.70;;
17844;SDS011;9047;53.486;10.218;2022-09-27T11:14:16;3.47;;;1.00;;
17844;SDS011;9047;53.486;10.218;2022-09-27T11:17:08;3.17;;;0.80;;
17844;SDS011;9047;53.486;10.218;2022-09-27T11:19:46;0.90;;;0.80;;
17844;SDS011;9047;53.486;10.218;2022-09-27T11:22:36;1.42;;;0.70;;
17844;SDS011;9047;53.486;10.218;2022-09-27T11:25:17;3.47;;;0.90;;
17844;SDS011;9047;53.486;10.218;2022-09-27T11:28:01;1.85;;;0.82;;
17844;SDS011;9047;53.486;10.218;2022-09-27T11:30:40;1.13;;;1.00;;
17844;SDS011;9047;53.486;10.218;2022-09-27T11:33:35;1.38;;;0.90;;
17844;SDS011;9047;53.486;10.218;2022-09-27T11:36:29;1.77;;;0.88;;
17844;SDS011;9047;53.486;10.218;2022-09-27T11:39:10;1.40;;;0.50;;
17844;SDS011;9047;53.486;10.218;2022-09-27T11:41:53;1.33;;;0.68;;
17844;SDS011;9047;53.486;10.218;2022-09-27T11:44:51;3.35;;;0.70;;
17844;SDS011;9047;53.486;10.218;2022-09-27T11:47:37;2.88;;;0.77;;
17844;SDS011;9047;53.486;10.218;2022-09-27T11:53:17;1.10;;;0.65;;
17844;SDS011;9047;53.486;10.218;2022-09-27T11:55:59;1.52;;;0.68;;
17844;SDS011;9047;53.486;10.218;2022-09-27T11:58:35;1.45;;;0.70;;
17844;SDS011;9047;53.486;10.218;2022-09-27T12:01:13;0.70;;;0.52;;
17844;SDS011;9047;53.486;10.218;2022-09-27T12:04:06;1.35;;;0.60;;
17844;SDS011;9047;53.486;10.218;2022-09-27T12:06:54;0.88;;;0.60;;
17844;SDS011;9047;53.486;10.218;2022-09-27T12:09:27;0.73;;;0.50;;
17844;SDS011;9047;53.486;10.218;2022-09-27T12:12:00;1.00;;;0.50;;
17844;SDS011;9047;53.486;10.218;2022-09-27T12:14:32;1.83;;;0.50;;
17844;SDS011;9047;53.486;10.218;2022-09-27T12:17:01;2.47;;;0.70;;
17844;SDS011;9047;53.486;10.218;2022-09-27T12:19:31;0.82;;;0.50;;
17844;SDS011;9047;53.486;10.218;2022-09-27T12:22:02;0.40;;;0.40;;
17844;SDS011;9047;53.486;10.218;2022-09-27T12:24:32;2.08;;;0.80;;
17844;SDS011;9047;53.486;10.218;2022-09-27T12:27:02;0.77;;;0.60;;
17844;SDS011;9047;53.486;10.218;2022-09-27T12:29:35;0.63;;;0.60;;
17844;SDS011;9047;53.486;10.218;2022-09-27T12:32:07;1.20;;;0.70;;
17844;SDS011;9047;53.486;10.218;2022-09-27T12:34:43;2.15;;;0.70;;
17844;SDS011;9047;53.486;10.218;2022-09-27T12:37:17;0.75;;;0.50;;
17844;SDS011;9047;53.486;10.218;2022-09-27T12:39:49;0.70;;;0.70;;
17844;SDS011;9047;53.486;10.218;2022-09-27T12:42:21;1.20;;;0.70;;
17844;SDS011;9047;53.486;10.218;2022-09-27T12:44:51;1.88;;;0.80;;
17844;SDS011;9047;53.486;10.218;2022-09-27T12:47:23;1.42;;;1.00;;
17844;SDS011;9047;53.486;10.218;2022-09-27T12:50:10;2.28;;;0.98;;
17844;SDS011;9047;53.486;10.218;2022-09-27T12:52:46;1.60;;;0.60;;
17844;SDS011;9047;53.486;10.218;2022-09-27T12:55:27;1.40;;;0.80;;
17844;SDS011;9047;53.486;10.218;2022-09-27T12:58:23;1.13;;;0.65;;
17844;SDS011;9047;53.486;10.218;2022-09-27T13:01:15;1.17;;;0.60;;
17844;SDS011;9047;53.486;10.218;2022-09-27T13:03:59;1.52;;;0.70;;
17844;SDS011;9047;53.486;10.218;2022-09-27T13:06:52;0.88;;;0.65;;
17844;SDS011;9047;53.486;10.218;2022-09-27T13:09:32;2.65;;;0.80;;
17844;SDS011;9047;53.486;10.218;2022-09-27T13:12:13;1.33;;;0.70;;
17844;SDS011;9047;53.486;10.218;2022-09-27T13:14:53;1.15;;;0.57;;
17844;SDS011;9047;53.486;10.218;2022-09-27T13:17:31;0.93;;;0.60;;
17844;SDS011;9047;53.486;10.218;2022-09-27T13:20:37;0.90;;;0.50;;
17844;SDS011;9047;53.486;10.218;2022-09-27T13:26:45;1.10;;;0.50;;
17844;SDS011;9047;53.486;10.218;2022-09-27T13:29:21;1.45;;;0.60;;
17844;SDS011;9047;53.486;10.218;2022-09-27T13:34:51;0.98;;;0.43;;
17844;SDS011;9047;53.486;10.218;2022-09-27T13:37:44;1.17;;;0.60;;
17844;SDS011;9047;53.486;10.218;2022-09-27T13:40:21;1.38;;;0.63;;
17844;SDS011;9047;53.486;10.218;2022-09-27T13:43:04;3.08;;;1.33;;
17844;SDS011;9047;53.486;10.218;2022-09-27T13:45:57;1.67;;;0.40;;
17844;SDS011;9047;53.486;10.218;2022-09-27T13:48:38;1.02;;;0.50;;
17844;SDS011;9047;53.486;10.218;2022-09-27T13:51:16;1.95;;;0.50;;
17844;SDS011;9047;53.486;10.218;2022-09-27T13:53:59;0.90;;;0.57;;
17844;SDS011;9047;53.486;10.218;2022-09-27T13:56:50;3.75;;;0.60;;
17844;SDS011;9047;53.486;10.218;2022-09-27T13:59:24;2.65;;;0.73;;
17844;SDS011;9047;53.486;10.218;2022-09-27T14:01:59;2.58;;;0.50;;
17844;SDS011;9047;53.486;10.218;2022-09-27T14:04:41;2.28;;;0.70;;
17844;SDS011;9047;53.486;10.218;2022-09-27T14:07:13;1.30;;;0.50;;
17844;SDS011;9047;53.486;10.218;2022-09-27T14:09:44;0.70;;;0.50;;
17844;SDS011;9047;53.486;10.218;2022-09-27T14:12:17;3.03;;;0.60;;
17844;SDS011;9047;53.486;10.218;2022-09-27T14:14:45;1.48;;;0.60;;
17844;SDS011;9047;53.486;10.218;2022-09-27T14:17:17;1.98;;;0.55;;
17844;SDS011;9047;53.486;10.218;2022-09-27T14:19:45;1.27;;;0.50;;
17844;SDS011;9047;53.486;10.218;2022-09-27T14:22:15;1.27;;;0.52;;
17844;SDS011;9047;53.486;10.218;2022-09-27T14:24:45;2.83;;;0.70;;
17844;SDS011;9047;53.486;10.218;2022-09-27T14:27:15;1.38;;;0.60;;
17844;SDS011;9047;53.486;10.218;2022-09-27T14:29:45;1.02;;;0.50;;
17844;SDS011;9047;53.486;10.218;2022-09-27T14:32:14;2.65;;;0.70;;
17844;SDS011;9047;53.486;10.218;2022-09-27T14:34:43;2.30;;;0.80;;
17844;SDS011;9047;53.486;10.218;2022-09-27T14:37:17;1.75;;;0.60;;
17844;SDS011;9047;53.486;10.218;2022-09-27T14:39:52;2.50;;;1.10;;
17844;SDS011;9047;53.486;10.218;2022-09-27T14:42:21;2.35;;;1.02;;
17844;SDS011;9047;53.486;10.218;2022-09-27T14:44:51;2.47;;;1.30;;
17844;SDS011;9047;53.486;10.218;2022-09-27T14:47:22;2.20;;;1.27;;
17844;SDS011;9047;53.486;10.218;2022-09-27T14:49:52;2.80;;;1.40;;
17844;SDS011;9047;53.486;10.218;2022-09-27T14:52:22;3.22;;;1.50;;
17844;SDS011;9047;53.486;10.218;2022-09-27T14:54:57;3.15;;;1.60;;
17844;SDS011;9047;53.486;10.218;2022-09-27T14:57:25;3.65;;;1.73;;
17844;SDS011;9047;53.486;10.218;2022-09-27T14:59:54;2.70;;;1.65;;
17844;SDS011;9047;53.486;10.218;2022-09-27T15:02:22;1.73;;;1.60;;
17844;SDS011;9047;53.486;10.218;2022-09-27T15:04:51;2.58;;;1.60;;
17844;SDS011;9047;53.486;10.218;2022-09-27T15:07:19;2.63;;;1.58;;
17844;SDS011;9047;53.486;10.218;2022-09-27T15:09:47;1.85;;;1.40;;
17844;SDS011;9047;53.486;10.218;2022-09-27T15:12:18;2.08;;;1.40;;
17844;SDS011;9047;53.486;10.218;2022-09-27T15:14:52;2.78;;;1.60;;
17844;SDS011;9047;53.486;10.218;2022-09-27T15:17:22;3.75;;;1.90;;
17844;SDS011;9047;53.486;10.218;2022-09-27T15:19:58;2.22;;;1.40;;
17844;SDS011;9047;53.486;10.218;2022-09-27T15:22:34;2.90;;;1.80;;
17844;SDS011;9047;53.486;10.218;2022-09-27T15:25:16;4.22;;;1.80;;
17844;SDS011;9047;53.486;10.218;2022-09-27T15:27:56;3.50;;;1.38;;
17844;SDS011;9047;53.486;10.218;2022-09-27T15:30:32;2.78;;;1.52;;